createdAt,value
2023-09-01T00:01:17.881Z,0.83
2023-09-01T00:03:44.858Z,1.37
2023-09-01T00:06:15.840Z,1.47
2023-09-01T00:08:43.955Z,0.97
2023-09-01T00:11:12.062Z,1.23
2023-09-01T00:13:39.157Z,1.03
2023-09-01T00:16:06.200Z,1.13
2023-09-01T00:18:34.284Z,1.43
2023-09-01T00:21:01.815Z,0.90
2023-09-01T00:23:28.913Z,1.00
2023-09-01T00:26:00.767Z,1.10
2023-09-01T00:28:27.715Z,1.63
2023-09-01T00:30:59.128Z,1.40
2023-09-01T00:33:29.252Z,0.90
2023-09-01T00:35:57.204Z,1.13
2023-09-01T00:38:26.158Z,1.00
2023-09-01T00:40:53.585Z,1.07
2023-09-01T00:43:20.469Z,1.47
2023-09-01T00:45:47.340Z,1.20
2023-09-01T00:48:15.003Z,1.20
2023-09-01T00:50:42.749Z,1.50
2023-09-01T00:53:09.741Z,0.97
2023-09-01T00:55:37.498Z,0.97
2023-09-01T00:58:04.577Z,1.13
2023-09-01T01:00:34.100Z,1.20
2023-09-01T01:03:07.937Z,1.40
2023-09-01T01:05:46.488Z,1.57
2023-09-01T01:08:23.976Z,1.33
2023-09-01T01:11:00.780Z,1.23
2023-09-01T01:13:35.532Z,1.27
2023-09-01T01:16:03.479Z,1.63
2023-09-01T01:18:33.520Z,1.30
2023-09-01T01:21:25.747Z,1.47
2023-09-01T01:23:53.454Z,1.00
2023-09-01T01:26:21.585Z,1.73
2023-09-01T01:28:48.307Z,1.40
2023-09-01T01:31:14.992Z,1.23
2023-09-01T01:34:01.133Z,1.70
2023-09-01T01:37:10.040Z,1.40
2023-09-01T01:39:40.046Z,1.30
2023-09-01T01:42:14.977Z,1.10
2023-09-01T01:44:47.694Z,1.13
2023-09-01T01:47:15.235Z,1.83
2023-09-01T01:49:42.010Z,2.10
2023-09-01T01:52:08.698Z,2.60
2023-09-01T01:54:35.384Z,1.97
2023-09-01T01:57:02.098Z,1.30
2023-09-01T01:59:28.931Z,1.40
2023-09-01T02:01:55.687Z,1.57
2023-09-01T02:04:22.531Z,1.40
2023-09-01T02:06:49.192Z,1.20
2023-09-01T02:09:15.834Z,1.50
2023-09-01T02:11:42.438Z,1.20
2023-09-01T02:14:09.265Z,1.40
2023-09-01T02:16:36.046Z,1.13
2023-09-01T02:19:02.671Z,1.30
2023-09-01T02:21:29.381Z,1.40
2023-09-01T02:23:56.067Z,1.40
2023-09-01T02:26:24.600Z,1.40
2023-09-01T02:28:52.031Z,1.90
2023-09-01T02:31:19.535Z,1.93
2023-09-01T02:33:46.212Z,1.47
2023-09-01T02:36:22.656Z,1.00
2023-09-01T02:38:49.312Z,2.17
2023-09-01T02:41:15.907Z,1.20
2023-09-01T02:43:43.474Z,1.50
2023-09-01T02:46:10.034Z,1.50
2023-09-01T02:48:36.676Z,1.40
2023-09-01T02:51:06.166Z,1.37
2023-09-01T02:53:33.644Z,1.50
2023-09-01T02:56:00.418Z,1.33
2023-09-01T02:58:27.362Z,1.10
2023-09-01T03:00:54.345Z,1.60
2023-09-01T03:03:21.998Z,1.30
2023-09-01T03:05:50.449Z,1.07
2023-09-01T03:08:22.530Z,2.20
2023-09-01T03:10:49.468Z,1.60
2023-09-01T03:13:16.218Z,1.83
2023-09-01T03:15:43.543Z,1.87
2023-09-01T03:18:15.607Z,1.77
2023-09-01T03:20:43.736Z,1.73
2023-09-01T03:23:10.387Z,1.67
2023-09-01T03:25:36.974Z,1.63
2023-09-01T03:28:03.779Z,2.17
2023-09-01T03:30:30.375Z,1.60
2023-09-01T03:32:57.066Z,1.53
2023-09-01T03:35:23.952Z,2.80
2023-09-01T03:37:51.098Z,1.50
2023-09-01T03:40:17.970Z,1.53
2023-09-01T03:42:44.563Z,1.27
2023-09-01T03:45:11.544Z,1.70
2023-09-01T03:47:38.290Z,1.80
2023-09-01T03:50:05.521Z,1.30
2023-09-01T03:52:32.161Z,2.00
2023-09-01T03:54:59.698Z,1.30
2023-09-01T03:57:26.328Z,1.90
2023-09-01T03:59:53.345Z,1.50
2023-09-01T04:02:19.994Z,1.73
2023-09-01T04:04:46.593Z,1.50
2023-09-01T04:07:13.214Z,1.73
2023-09-01T04:09:39.832Z,2.40
2023-09-01T04:12:07.039Z,1.73
2023-09-01T04:14:33.689Z,1.60
2023-09-01T04:17:00.491Z,1.83
2023-09-01T04:19:27.221Z,1.40
2023-09-01T04:21:53.852Z,1.90
2023-09-01T04:24:20.729Z,1.40
2023-09-01T04:26:47.448Z,2.03
2023-09-01T04:29:15.221Z,1.30
2023-09-01T04:31:41.892Z,1.50
2023-09-01T04:34:08.592Z,1.77
2023-09-01T04:36:45.597Z,2.00
2023-09-01T04:39:16.492Z,1.40
2023-09-01T04:41:43.526Z,1.60
2023-09-01T04:44:10.257Z,1.70
2023-09-01T04:46:37.051Z,1.60
2023-09-01T04:49:03.881Z,1.60
2023-09-01T04:51:30.492Z,1.40
2023-09-01T04:53:57.157Z,1.67
2023-09-01T04:56:24.026Z,1.97
2023-09-01T04:58:50.686Z,1.17
2023-09-01T05:01:17.416Z,1.63
2023-09-01T05:03:44.247Z,1.93
2023-09-01T05:06:12.133Z,1.83
2023-09-01T05:08:38.845Z,1.53
2023-09-01T05:11:05.800Z,2.03
2023-09-01T05:13:33.346Z,1.73
2023-09-01T05:16:00.044Z,1.53
2023-09-01T05:18:26.777Z,1.90
2023-09-01T05:20:53.362Z,2.23
2023-09-01T05:23:20.004Z,1.30
2023-09-01T05:25:52.462Z,1.43
2023-09-01T05:28:19.199Z,1.60
2023-09-01T05:30:45.925Z,1.50
2023-09-01T05:33:15.398Z,1.20
2023-09-01T05:35:42.491Z,1.77
2023-09-01T05:38:10.575Z,1.93
2023-09-01T05:40:37.946Z,1.40
2023-09-01T05:43:04.630Z,1.70
2023-09-01T05:45:31.899Z,1.50
2023-09-01T05:47:58.838Z,1.87
2023-09-01T05:50:25.541Z,1.57
2023-09-01T05:52:52.234Z,1.20
2023-09-01T05:55:18.974Z,1.33
2023-09-01T05:57:45.656Z,1.30
2023-09-01T06:00:12.812Z,1.37
2023-09-01T06:02:39.626Z,0.88
2023-09-01T06:05:06.876Z,1.43
2023-09-01T06:07:33.538Z,1.60
2023-09-01T06:10:00.242Z,1.90
2023-09-01T06:12:27.006Z,1.50
2023-09-01T06:14:53.673Z,1.10
2023-09-01T06:17:29.471Z,0.90
2023-09-01T06:20:05.510Z,1.20
2023-09-01T06:22:32.128Z,0.98
2023-09-01T06:24:58.944Z,1.20
2023-09-01T06:27:25.706Z,1.20
2023-09-01T06:29:52.395Z,0.90
2023-09-01T06:32:19.048Z,1.30
2023-09-01T06:34:45.720Z,1.10
2023-09-01T06:37:12.365Z,0.60
2023-09-01T06:39:38.965Z,1.10
2023-09-01T06:42:07.424Z,1.10
2023-09-01T06:44:34.157Z,0.95
2023-09-01T06:47:00.906Z,0.80
2023-09-01T06:49:27.577Z,1.17
2023-09-01T06:51:54.143Z,1.55
2023-09-01T06:54:20.979Z,1.23
2023-09-01T06:56:47.656Z,1.40
2023-09-01T06:59:14.458Z,0.98
2023-09-01T07:01:41.388Z,1.38
2023-09-01T07:04:08.450Z,0.98
2023-09-01T07:06:35.336Z,1.08
2023-09-01T07:09:02.579Z,0.90
2023-09-01T07:11:29.298Z,0.93
2023-09-01T07:13:55.953Z,0.93
2023-09-01T07:16:22.649Z,0.93
2023-09-01T07:18:49.319Z,0.90
2023-09-01T07:21:15.886Z,0.70
2023-09-01T07:23:42.671Z,0.85
2023-09-01T07:26:09.345Z,0.75
2023-09-01T07:28:36.109Z,1.60
2023-09-01T07:31:02.867Z,0.90
2023-09-01T07:33:31.629Z,0.50
2023-09-01T07:35:58.624Z,0.50
2023-09-01T07:38:25.285Z,0.70
2023-09-01T07:40:51.918Z,0.40
2023-09-01T07:43:19.213Z,0.60
2023-09-01T07:45:46.105Z,0.50
2023-09-01T07:48:33.218Z,0.70
2023-09-01T07:50:59.936Z,0.80
2023-09-01T07:53:27.814Z,0.35
2023-09-01T07:55:55.364Z,0.65
2023-09-01T07:58:22.140Z,0.20
2023-09-01T08:00:49.488Z,0.60
2023-09-01T08:03:17.569Z,0.40
2023-09-01T08:05:44.430Z,0.70
2023-09-01T08:08:14.630Z,0.40
2023-09-01T08:10:42.767Z,0.43
2023-09-01T08:13:10.044Z,0.45
2023-09-01T08:15:36.885Z,0.30
2023-09-01T08:18:04.219Z,0.50
2023-09-01T08:20:31.015Z,0.30
2023-09-01T08:22:57.780Z,0.60
2023-09-01T08:25:24.544Z,0.43
2023-09-01T08:27:51.246Z,0.30
2023-09-01T08:30:17.998Z,0.40
2023-09-01T08:32:44.816Z,0.32
2023-09-01T08:35:15.104Z,0.30
2023-09-01T08:37:41.858Z,0.20
2023-09-01T08:40:12.328Z,0.20
2023-09-01T08:42:48.837Z,0.20
2023-09-01T08:45:20.771Z,0.20
2023-09-01T08:47:49.780Z,0.35
2023-09-01T08:50:18.019Z,0.20
2023-09-01T08:52:46.375Z,0.17
2023-09-01T08:55:17.412Z,0.10
2023-09-01T08:57:45.485Z,0.20
2023-09-01T09:00:12.634Z,0.28
2023-09-01T09:02:53.043Z,0.30
2023-09-01T09:05:28.729Z,0.28
2023-09-01T09:08:06.900Z,0.20
2023-09-01T09:10:47.701Z,0.20
2023-09-01T09:13:24.752Z,0.25
2023-09-01T09:16:06.876Z,0.10
2023-09-01T09:18:34.368Z,0.30
2023-09-01T09:21:01.698Z,0.32
2023-09-01T09:23:47.091Z,0.10
2023-09-01T09:26:13.983Z,0.20
2023-09-01T09:28:41.250Z,0.20
2023-09-01T09:31:08.001Z,0.30
2023-09-01T09:33:35.680Z,0.10
2023-09-01T09:36:04.956Z,0.10
2023-09-01T09:38:47.866Z,0.30
2023-09-01T09:41:15.326Z,0.15
2023-09-01T09:43:46.802Z,0.20
2023-09-01T09:46:15.812Z,0.10
2023-09-01T09:48:43.327Z,0.22
2023-09-01T09:51:11.478Z,0.20
2023-09-01T09:53:42.340Z,0.10
2023-09-01T09:56:21.254Z,0.10
2023-09-01T09:58:51.534Z,0.10
2023-09-01T10:01:23.034Z,0.00
2023-09-01T10:03:50.932Z,0.20
2023-09-01T10:06:18.810Z,0.43
2023-09-01T10:08:46.743Z,0.10
2023-09-01T10:11:15.366Z,0.10
2023-09-01T10:13:46.126Z,0.10
2023-09-01T10:16:14.676Z,0.17
2023-09-01T10:18:48.663Z,0.35
2023-09-01T10:21:16.631Z,0.10
2023-09-01T10:23:44.727Z,0.10
2023-09-01T10:26:27.644Z,0.13
2023-09-01T10:28:57.754Z,0.20
2023-09-01T10:31:25.232Z,0.30
2023-09-01T10:34:13.645Z,0.20
2023-09-01T10:36:42.259Z,0.10
2023-09-01T10:39:18.214Z,0.20
2023-09-01T10:42:09.107Z,0.20
2023-09-01T10:44:43.520Z,0.13
2023-09-01T10:47:32.082Z,0.20
2023-09-01T10:50:05.493Z,0.10
2023-09-01T10:52:33.030Z,0.30
2023-09-01T10:55:06.648Z,0.20
2023-09-01T10:57:45.463Z,0.10
2023-09-01T11:00:33.272Z,0.20
2023-09-01T11:03:31.869Z,0.20
2023-09-01T11:05:59.937Z,0.10
2023-09-01T11:08:26.862Z,0.20
2023-09-01T11:11:08.541Z,0.20
2023-09-01T11:13:35.309Z,0.20
2023-09-01T11:16:09.394Z,0.20
2023-09-01T11:18:36.180Z,0.10
2023-09-01T11:21:02.956Z,0.17
2023-09-01T11:23:29.615Z,0.17
2023-09-01T11:25:57.613Z,0.28
2023-09-01T11:28:26.837Z,0.20
2023-09-01T11:30:55.381Z,0.30
2023-09-01T11:33:27.162Z,0.30
2023-09-01T11:36:08.319Z,0.28
2023-09-01T11:38:37.776Z,0.82
2023-09-01T11:41:14.771Z,0.30
2023-09-01T11:43:42.817Z,0.28
2023-09-01T11:46:11.836Z,0.20
2023-09-01T11:48:38.714Z,0.20
2023-09-01T11:51:10.311Z,0.20
2023-09-01T11:53:37.716Z,0.20
2023-09-01T11:56:24.449Z,0.28
2023-09-01T11:58:53.581Z,0.45
2023-09-01T12:01:22.396Z,0.40
2023-09-01T12:03:54.350Z,0.17
2023-09-01T12:06:24.765Z,0.20
2023-09-01T12:08:54.100Z,0.17
2023-09-01T12:11:23.420Z,0.22
2023-09-01T12:13:50.482Z,0.20
2023-09-01T12:16:22.876Z,0.30
2023-09-01T12:18:50.255Z,0.22
2023-09-01T12:21:17.347Z,0.40
2023-09-01T12:23:46.157Z,0.22
2023-09-01T12:26:17.277Z,0.20
2023-09-01T12:28:44.828Z,0.20
2023-09-01T12:31:13.118Z,0.40
2023-09-01T12:33:41.144Z,0.50
2023-09-01T12:36:08.257Z,0.30
2023-09-01T12:38:37.717Z,0.20
2023-09-01T12:41:04.459Z,0.40
2023-09-01T12:43:31.349Z,0.30
2023-09-01T12:45:58.482Z,0.13
2023-09-01T12:48:25.254Z,0.20
2023-09-01T12:50:52.216Z,0.32
2023-09-01T12:53:19.584Z,0.20
2023-09-01T12:55:48.768Z,0.30
2023-09-01T12:58:16.020Z,0.77
2023-09-01T13:00:44.003Z,0.20
2023-09-01T13:03:10.876Z,0.20
2023-09-01T13:05:37.738Z,0.38
2023-09-01T13:08:05.070Z,0.20
2023-09-01T13:10:31.832Z,0.30
2023-09-01T13:12:58.724Z,0.30
2023-09-01T13:15:25.580Z,0.30
2023-09-01T13:17:52.281Z,0.20
2023-09-01T13:20:19.114Z,0.30
2023-09-01T13:22:45.967Z,0.30
2023-09-01T13:25:12.765Z,0.20
2023-09-01T13:27:40.226Z,0.30
2023-09-01T13:30:07.856Z,0.40
2023-09-01T13:32:35.083Z,0.40
2023-09-01T13:35:04.192Z,0.40
2023-09-01T13:37:31.138Z,0.20
2023-09-01T13:39:59.718Z,0.20
2023-09-01T13:42:27.567Z,0.32
2023-09-01T13:44:55.850Z,0.20
2023-09-01T13:47:23.470Z,0.20
2023-09-01T13:49:54.875Z,0.20
2023-09-01T13:52:32.735Z,0.28
2023-09-01T13:55:07.792Z,0.30
2023-09-01T13:58:07.198Z,0.30
2023-09-01T14:01:21.799Z,0.30
2023-09-01T14:04:02.773Z,0.28
2023-09-01T14:09:35.874Z,0.43
2023-09-01T14:12:04.428Z,0.25
2023-09-01T14:14:31.625Z,0.30
2023-09-01T14:16:58.386Z,0.22
2023-09-01T14:19:25.233Z,0.65
2023-09-01T14:21:52.044Z,0.30
2023-09-01T14:24:18.766Z,0.35
2023-09-01T14:26:46.844Z,0.20
2023-09-01T14:29:13.597Z,0.50
2023-09-01T14:31:40.268Z,0.32
2023-09-01T14:34:06.949Z,0.60
2023-09-01T14:36:33.607Z,0.30
2023-09-01T14:39:00.252Z,0.30
2023-09-01T14:41:27.332Z,0.47
2023-09-01T14:43:54.149Z,0.35
2023-09-01T14:46:20.964Z,0.40
2023-09-01T14:48:47.862Z,0.28
2023-09-01T14:51:16.105Z,0.30
2023-09-01T14:53:45.664Z,0.32
2023-09-01T14:56:15.589Z,0.30
2023-09-01T14:58:42.543Z,0.50
2023-09-01T15:01:09.416Z,0.40
2023-09-01T15:03:36.661Z,0.32
2023-09-01T15:06:03.455Z,0.35
2023-09-01T15:08:30.180Z,0.55
2023-09-01T15:11:02.791Z,0.70
2023-09-01T15:13:29.528Z,0.43
2023-09-01T15:15:56.181Z,0.75
2023-09-01T15:18:22.969Z,0.70
2023-09-01T15:21:02.455Z,0.30
2023-09-01T15:23:29.130Z,0.30
2023-09-01T15:25:55.731Z,0.50
2023-09-01T15:28:22.427Z,0.73
2023-09-01T15:30:49.130Z,0.60
2023-09-01T15:33:16.049Z,0.45
2023-09-01T15:35:42.884Z,0.60
2023-09-01T15:38:09.534Z,0.60
2023-09-01T15:40:36.414Z,0.40
2023-09-01T15:43:03.401Z,0.90
2023-09-01T15:45:30.262Z,0.80
2023-09-01T15:47:57.180Z,0.50
2023-09-01T15:50:31.512Z,1.05
2023-09-01T15:53:06.271Z,0.77
2023-09-01T15:55:34.234Z,0.30
2023-09-01T15:58:02.137Z,0.60
2023-09-01T16:00:28.916Z,1.17
2023-09-01T16:02:55.894Z,0.57
2023-09-01T16:05:23.180Z,0.60
2023-09-01T16:07:50.035Z,0.40
2023-09-01T16:10:16.682Z,1.00
2023-09-01T16:12:43.512Z,0.57
2023-09-01T16:15:10.678Z,0.28
2023-09-01T16:17:37.407Z,0.60
2023-09-01T16:20:04.697Z,0.60
2023-09-01T16:22:31.328Z,0.43
2023-09-01T16:24:57.904Z,0.30
2023-09-01T16:27:25.181Z,0.25
2023-09-01T16:29:51.897Z,0.40
2023-09-01T16:32:18.496Z,0.50
2023-09-01T16:34:45.207Z,0.30
2023-09-01T16:37:12.341Z,0.38
2023-09-01T16:39:39.015Z,0.50
2023-09-01T16:42:05.726Z,0.40
2023-09-01T16:44:35.120Z,0.32
2023-09-01T16:47:02.434Z,0.40
2023-09-01T16:49:30.130Z,0.20
2023-09-01T16:51:56.850Z,0.40
2023-09-01T16:54:23.577Z,0.77
2023-09-01T16:56:50.203Z,0.30
2023-09-01T16:59:17.205Z,0.70
2023-09-01T17:01:44.393Z,0.30
2023-09-01T17:04:11.134Z,0.35
2023-09-01T17:06:38.044Z,0.30
2023-09-01T17:09:04.832Z,0.80
2023-09-01T17:11:31.747Z,0.50
2023-09-01T17:13:58.885Z,0.47
2023-09-01T17:16:32.529Z,0.47
2023-09-01T17:19:01.900Z,0.40
2023-09-01T17:21:34.472Z,0.60
2023-09-01T17:24:05.215Z,0.50
2023-09-01T17:26:44.626Z,0.40
2023-09-01T17:29:13.828Z,0.73
2023-09-01T17:31:45.532Z,0.40
2023-09-01T17:34:12.729Z,0.60
2023-09-01T17:36:40.408Z,0.45
2023-09-01T17:39:07.335Z,0.50
2023-09-01T17:41:39.263Z,0.88
2023-09-01T17:44:06.967Z,0.60
2023-09-01T17:46:34.525Z,0.43
2023-09-01T17:49:10.519Z,0.50
2023-09-01T17:51:40.843Z,0.25
2023-09-01T17:54:10.522Z,0.50
2023-09-01T17:56:37.326Z,0.52
2023-09-01T17:59:04.084Z,0.80
2023-09-01T18:01:31.262Z,0.82
2023-09-01T18:04:01.111Z,0.50
2023-09-01T18:06:31.906Z,0.40
2023-09-01T18:09:03.982Z,0.30
2023-09-01T18:11:32.732Z,0.40
2023-09-01T18:14:00.297Z,0.45
2023-09-01T18:16:27.540Z,0.30
2023-09-01T18:18:57.897Z,0.43
2023-09-01T18:21:32.986Z,0.52
2023-09-01T18:24:06.429Z,0.45
2023-09-01T18:26:33.171Z,0.70
2023-09-01T18:29:00.559Z,0.47
2023-09-01T18:31:27.315Z,0.43
2023-09-01T18:33:54.341Z,0.70
2023-09-01T18:36:26.111Z,0.50
2023-09-01T18:38:56.664Z,0.68
2023-09-01T18:41:24.008Z,0.98
2023-09-01T18:43:54.188Z,0.57
2023-09-01T18:46:21.155Z,0.40
2023-09-01T18:48:47.993Z,0.77
2023-09-01T18:51:15.065Z,0.52
2023-09-01T18:53:42.799Z,0.63
2023-09-01T18:56:09.710Z,0.45
2023-09-01T18:58:40.834Z,0.68
2023-09-01T19:01:07.755Z,0.60
2023-09-01T19:03:34.907Z,0.68
2023-09-01T19:06:02.178Z,0.40
2023-09-01T19:08:34.291Z,0.88
2023-09-01T19:11:09.759Z,0.40
2023-09-01T19:13:37.779Z,0.93
2023-09-01T19:16:04.874Z,0.40
2023-09-01T19:18:40.233Z,0.52
2023-09-01T19:21:08.196Z,0.40
2023-09-01T19:23:35.634Z,0.60
2023-09-01T19:26:12.213Z,0.50
2023-09-01T19:28:39.309Z,0.55
2023-09-01T19:31:07.986Z,0.60
2023-09-01T19:33:40.853Z,0.57
2023-09-01T19:36:10.365Z,0.80
2023-09-01T19:38:37.216Z,0.52
2023-09-01T19:41:04.934Z,1.30
2023-09-01T19:43:32.966Z,0.20
2023-09-01T19:46:00.626Z,0.50
2023-09-01T19:48:31.960Z,0.70
2023-09-01T19:51:01.325Z,0.75
2023-09-01T19:53:30.295Z,0.98
2023-09-01T19:56:00.045Z,1.17
2023-09-01T19:58:29.342Z,1.23
2023-09-01T20:00:56.627Z,0.63
2023-09-01T20:03:25.496Z,1.05
2023-09-01T20:05:52.923Z,0.68
2023-09-01T20:08:20.723Z,0.65
2023-09-01T20:10:49.175Z,0.80
2023-09-01T20:13:16.900Z,0.65
2023-09-01T20:15:47.478Z,0.63
2023-09-01T20:18:18.742Z,0.60
2023-09-01T20:20:47.088Z,0.80
2023-09-01T20:23:14.341Z,0.38
2023-09-01T20:25:43.389Z,0.63
2023-09-01T20:28:11.505Z,0.52
2023-09-01T20:30:38.217Z,0.50
2023-09-01T20:33:05.452Z,0.60
2023-09-01T20:35:32.182Z,0.73
2023-09-01T20:37:58.953Z,0.65
2023-09-01T20:40:25.542Z,0.50
2023-09-01T20:42:54.264Z,0.43
2023-09-01T20:45:20.936Z,0.40
2023-09-01T20:47:48.894Z,0.43
2023-09-01T20:50:15.999Z,0.60
2023-09-01T20:52:42.886Z,0.43
2023-09-01T20:55:11.270Z,0.30
2023-09-01T20:57:46.198Z,0.68
2023-09-01T21:00:15.398Z,0.57
2023-09-01T21:02:49.764Z,0.82
2023-09-01T21:05:20.643Z,0.30
2023-09-01T21:07:49.820Z,0.40
2023-09-01T21:10:18.424Z,0.50
2023-09-01T21:12:45.301Z,0.77
2023-09-01T21:15:12.047Z,0.40
2023-09-01T21:17:38.710Z,0.57
2023-09-01T21:20:06.285Z,0.77
2023-09-01T21:22:33.025Z,0.38
2023-09-01T21:25:00.132Z,0.75
2023-09-01T21:27:27.058Z,0.80
2023-09-01T21:29:55.023Z,0.45
2023-09-01T21:32:22.042Z,0.40
2023-09-01T21:34:49.548Z,0.47
2023-09-01T21:37:16.608Z,0.55
2023-09-01T21:39:43.497Z,0.60
2023-09-01T21:42:10.255Z,0.20
2023-09-01T21:44:36.977Z,0.40
2023-09-01T21:47:04.176Z,0.60
2023-09-01T21:49:31.311Z,0.30
2023-09-01T21:51:57.933Z,0.50
2023-09-01T21:54:24.702Z,0.43
2023-09-01T21:56:51.514Z,0.40
2023-09-01T21:59:18.116Z,0.52
2023-09-01T22:01:44.747Z,0.30
2023-09-01T22:04:11.309Z,0.65
2023-09-01T22:06:37.982Z,0.52
2023-09-01T22:09:05.452Z,0.63
2023-09-01T22:11:31.986Z,0.52
2023-09-01T22:13:58.765Z,0.60
2023-09-01T22:16:28.369Z,0.60
2023-09-01T22:18:55.631Z,0.47
2023-09-01T22:21:23.326Z,0.70
2023-09-01T22:23:51.280Z,0.93
2023-09-01T22:26:18.032Z,0.40
2023-09-01T22:28:44.704Z,0.75
2023-09-01T22:31:11.441Z,0.50
2023-09-01T22:33:38.168Z,0.57
2023-09-01T22:36:07.501Z,0.60
2023-09-01T22:38:36.162Z,0.75
2023-09-01T22:41:02.975Z,0.73
2023-09-01T22:43:30.618Z,0.68
2023-09-01T22:45:57.400Z,0.40
2023-09-01T22:48:24.392Z,0.40
2023-09-01T22:50:51.270Z,0.90
2023-09-01T22:53:18.625Z,0.52
2023-09-01T22:55:46.163Z,0.30
2023-09-01T22:58:12.974Z,0.60
2023-09-01T23:00:41.158Z,0.60
2023-09-01T23:03:09.347Z,0.73
2023-09-01T23:05:36.626Z,0.47
2023-09-01T23:08:03.726Z,0.80
2023-09-01T23:10:30.586Z,0.57
2023-09-01T23:12:57.235Z,0.60
2023-09-01T23:15:27.689Z,1.13
2023-09-01T23:17:55.322Z,0.52
2023-09-01T23:20:24.452Z,0.57
2023-09-01T23:22:51.404Z,0.50
2023-09-01T23:25:19.796Z,0.52
2023-09-01T23:27:46.705Z,0.65
2023-09-01T23:30:15.000Z,0.55
2023-09-01T23:32:41.807Z,0.50
2023-09-01T23:35:08.669Z,0.55
2023-09-01T23:37:40.119Z,0.75
2023-09-01T23:40:10.516Z,0.70
2023-09-01T23:42:38.106Z,0.52
2023-09-01T23:45:05.699Z,0.50
2023-09-01T23:47:32.396Z,0.70
2023-09-01T23:49:59.174Z,0.40
2023-09-01T23:52:26.279Z,0.88
2023-09-01T23:54:53.502Z,0.60
2023-09-01T23:57:20.100Z,0.85
2023-09-01T23:59:47.284Z,0.68
